This is the latest recevied weather packets stored in our database for station/object WB0OCV. If no packets are shown the sender has not sent any weather packets the latest 10 day(s).
| Time | Temp. | Humidity | Pressure | Rain* | Wind** | Luminosity | Snow |
|---|---|---|---|---|---|---|---|
| 1777605366 | 10° C | 98% | 1009.1 hPa | 0 mm | - | 0 W/m² | - |
| 1777605063 | 10° C | 97% | 1009 hPa | 0 mm | - | 0 W/m² | - |
| 1777604758 | 10° C | 97% | 1009 hPa | 0 mm | - | 0 W/m² | - |
| 1777604455 | 10° C | 97% | 1009.2 hPa | 0 mm | - | 0 W/m² | - |
| 1777604155 | 10° C | 97% | 1009 hPa | 0 mm | - | 0 W/m² | - |
| 1777603852 | 10° C | 97% | 1009.2 hPa | 0 mm | - | 0 W/m² | - |
| 1777603548 | 10° C | 97% | 1009.1 hPa | 0 mm | - | 0 W/m² | - |
| 1777603244 | 10° C | 97% | 1009.2 hPa | 0 mm | - | 0 W/m² | - |
| 1777602940 | 10° C | 97% | 1009.2 hPa | 0 mm | - | 0 W/m² | - |
| 1777602636 | 10° C | 97% | 1009 hPa | 0 mm | - | 0 W/m² | - |
| 1777602330 | 10° C | 97% | 1009.3 hPa | 0 mm | - | 0 W/m² | - |
| 1777602027 | 10° C | 97% | 1009.1 hPa | 0 mm | - | 0 W/m² | - |
| 1777587459 | 11.11° C | 92% | 1007.9 hPa | 0 mm | - | 36 W/m² | - |
| 1777585636 | 11.11° C | 95% | 1007.6 hPa | 0 mm | - | 77 W/m² | - |
| 1777584723 | 11.67° C | 96% | 1007.6 hPa | 0 mm | - | 54 W/m² | - |
| 1777584421 | 11.11° C | 96% | 1007.7 hPa | 0 mm | - | 50 W/m² | - |
| 1777583815 | 11.67° C | 96% | 1007.6 hPa | 0 mm | - | 44 W/m² | - |
| 1777581991 | 11.67° C | 96% | 1007.5 hPa | 0 mm | - | 61 W/m² | - |
| 1777580779 | 11.11° C | 96% | 1007.6 hPa | 0 mm | - | 64 W/m² | - |
| 1777580171 | 11.11° C | 96% | 1007.6 hPa | 0 mm | - | 83 W/m² | - |
| 1777579869 | 11.11° C | 96% | 1007.7 hPa | 0 mm | - | 89 W/m² | - |
| 1777579569 | 11.67° C | 96% | 1007.6 hPa | 0 mm | - | 83 W/m² | - |
| 1777579268 | 11.67° C | 97% | 1007.5 hPa | 0 mm | - | 116 W/m² | - |
| 1777578659 | 11.67° C | 97% | 1007.9 hPa | 1.27 mm | - | 94 W/m² | - |
| 1777578358 | 11.11° C | 97% | 1007.7 hPa | 1.27 mm | - | 110 W/m² | - |
* Rain latest hour (hover to see other rain measurements)
** Current wind speed in m/s (hover to see current wind gust speed)